createdAt,value
2022-12-23T00:01:11.839Z,94.70
2022-12-23T00:03:39.505Z,94.70
2022-12-23T00:06:12.992Z,94.70
2022-12-23T00:08:39.924Z,94.60
2022-12-23T00:11:06.955Z,94.50
2022-12-23T00:13:52.491Z,94.60
2022-12-23T00:16:19.523Z,94.60
2022-12-23T00:18:46.324Z,94.70
2022-12-23T00:21:13.993Z,94.60
2022-12-23T00:23:41.679Z,94.70
2022-12-23T00:26:12.535Z,94.60
2022-12-23T00:28:39.407Z,94.50
2022-12-23T00:31:06.571Z,94.50
2022-12-23T00:33:37.182Z,94.60
2022-12-23T00:36:13.402Z,94.80
2022-12-23T00:38:58.855Z,94.70
2022-12-23T00:41:44.472Z,94.80
2022-12-23T00:44:11.299Z,94.70
2022-12-23T00:46:38.048Z,95.00
2022-12-23T00:49:23.495Z,94.90
2022-12-23T00:51:50.307Z,94.80
2022-12-23T00:54:17.231Z,94.80
2022-12-23T00:56:44.056Z,94.80
2022-12-23T00:59:10.892Z,94.70
2022-12-23T01:01:56.877Z,94.80
2022-12-23T01:04:56.283Z,94.70
2022-12-23T01:07:23.313Z,94.50
2022-12-23T01:09:50.118Z,94.50
2022-12-23T01:12:16.966Z,94.60
2022-12-23T01:14:43.780Z,94.70
2022-12-23T01:17:10.599Z,94.70
2022-12-23T01:19:37.473Z,94.60
2022-12-23T01:22:04.306Z,94.40
2022-12-23T01:24:31.251Z,94.60
2022-12-23T01:26:58.174Z,94.30
2022-12-23T01:29:25.123Z,94.40
2022-12-23T01:31:52.059Z,94.50
2022-12-23T01:34:18.924Z,94.60
2022-12-23T01:36:45.799Z,94.60
2022-12-23T01:39:12.652Z,94.50
2022-12-23T01:41:58.072Z,94.70
2022-12-23T01:44:43.659Z,94.60
2022-12-23T01:47:11.837Z,94.70
2022-12-23T01:49:38.622Z,94.50
2022-12-23T01:52:05.447Z,94.20
2022-12-23T01:54:32.228Z,94.40
2022-12-23T01:56:59.047Z,94.40
2022-12-23T01:59:44.605Z,94.50
2022-12-23T02:02:30.286Z,94.50
2022-12-23T02:04:57.151Z,94.60
2022-12-23T02:07:42.682Z,94.50
2022-12-23T02:10:09.655Z,94.40
2022-12-23T02:12:36.399Z,94.30
2022-12-23T02:15:43.332Z,94.30
2022-12-23T02:18:16.306Z,94.40
2022-12-23T02:20:48.962Z,94.40
2022-12-23T02:23:27.862Z,94.40
2022-12-23T02:26:00.573Z,94.30
2022-12-23T02:28:30.483Z,94.40
2022-12-23T02:31:09.678Z,94.50
2022-12-23T02:33:36.616Z,94.40
2022-12-23T02:36:03.470Z,94.20
2022-12-23T02:38:32.128Z,94.30
2022-12-23T02:41:05.076Z,94.40
2022-12-23T02:43:31.894Z,94.40
2022-12-23T02:46:00.708Z,94.10
2022-12-23T02:48:29.534Z,94.10
2022-12-23T02:50:56.746Z,94.20
2022-12-23T02:53:31.292Z,94.20
2022-12-23T02:55:58.078Z,94.60
2022-12-23T02:58:26.423Z,94.40
2022-12-23T03:00:53.269Z,94.30
2022-12-23T03:03:21.290Z,94.70
2022-12-23T03:05:48.577Z,94.80
2022-12-23T03:08:26.084Z,95.00
2022-12-23T03:11:03.243Z,95.00
2022-12-23T03:13:30.067Z,95.00
2022-12-23T03:16:13.762Z,94.80
2022-12-23T03:18:50.398Z,94.90
2022-12-23T03:21:22.723Z,95.00
2022-12-23T03:23:55.929Z,95.10
2022-12-23T03:26:28.031Z,94.90
2022-12-23T03:29:06.294Z,94.90
2022-12-23T03:31:33.180Z,95.00
2022-12-23T03:34:10.391Z,94.80
2022-12-23T03:36:38.594Z,94.80
2022-12-23T03:39:05.895Z,95.00
2022-12-23T03:41:36.063Z,95.00
2022-12-23T03:44:06.999Z,95.00
2022-12-23T03:46:52.843Z,94.90
2022-12-23T03:49:21.787Z,94.70
2022-12-23T03:51:52.080Z,94.90
2022-12-23T03:54:24.003Z,95.10
2022-12-23T03:56:52.663Z,95.00
2022-12-23T03:59:20.128Z,95.00
2022-12-23T04:01:50.068Z,95.10
2022-12-23T04:04:23.150Z,94.80
2022-12-23T04:06:57.370Z,94.80
2022-12-23T04:09:24.646Z,94.80
2022-12-23T04:11:51.424Z,95.00
2022-12-23T04:14:18.648Z,95.00
2022-12-23T04:16:45.844Z,95.10
2022-12-23T04:19:12.660Z,95.00
2022-12-23T04:21:39.438Z,95.20
2022-12-23T04:24:06.267Z,95.00
2022-12-23T04:26:33.005Z,94.80
2022-12-23T04:28:59.793Z,94.90
2022-12-23T04:31:26.618Z,95.00
2022-12-23T04:33:53.411Z,94.90
2022-12-23T04:36:20.157Z,94.80
2022-12-23T04:38:46.949Z,95.10
2022-12-23T04:41:13.704Z,94.70
2022-12-23T04:43:40.522Z,94.70
2022-12-23T04:46:07.310Z,94.70
2022-12-23T04:48:34.124Z,94.80
2022-12-23T04:51:04.027Z,94.50
2022-12-23T04:53:30.903Z,94.30
2022-12-23T04:55:57.677Z,94.20
2022-12-23T04:58:25.279Z,94.20
2022-12-23T05:01:04.677Z,93.90
2022-12-23T05:03:31.719Z,94.20
2022-12-23T05:05:58.558Z,94.30
2022-12-23T05:08:25.383Z,94.00
2022-12-23T05:10:52.167Z,94.00
2022-12-23T05:13:18.988Z,94.10
2022-12-23T05:15:49.295Z,94.10
2022-12-23T05:18:16.203Z,94.30
2022-12-23T05:20:43.145Z,94.30
2022-12-23T05:23:09.979Z,94.30
2022-12-23T05:25:36.961Z,94.10
2022-12-23T05:28:04.008Z,94.40
2022-12-23T05:30:30.802Z,94.90
2022-12-23T05:32:57.784Z,94.80
2022-12-23T05:35:24.866Z,94.60
2022-12-23T05:37:51.862Z,94.80
2022-12-23T05:40:23.446Z,94.60
2022-12-23T05:42:54.381Z,94.50
2022-12-23T05:45:21.263Z,94.30
2022-12-23T05:47:48.044Z,94.70
2022-12-23T05:50:14.866Z,94.50
2022-12-23T05:52:41.644Z,94.50
2022-12-23T05:55:08.861Z,94.50
2022-12-23T05:57:35.679Z,94.40
2022-12-23T06:00:03.560Z,94.40
2022-12-23T06:02:39.300Z,94.70
2022-12-23T06:05:06.414Z,94.70
2022-12-23T06:07:33.256Z,94.80
2022-12-23T06:10:00.098Z,94.80
2022-12-23T06:12:26.954Z,94.90
2022-12-23T06:14:54.102Z,95.00
2022-12-23T06:17:20.894Z,95.30
2022-12-23T06:19:47.670Z,95.10
2022-12-23T06:22:14.627Z,95.30
2022-12-23T06:24:41.471Z,95.30
2022-12-23T06:27:08.244Z,95.40
2022-12-23T06:29:35.058Z,95.30
2022-12-23T06:32:01.911Z,95.40
2022-12-23T06:34:28.723Z,95.40
2022-12-23T06:36:55.509Z,95.70
2022-12-23T06:39:22.317Z,95.80
2022-12-23T06:41:49.175Z,95.80
2022-12-23T06:44:15.949Z,96.00
2022-12-23T06:46:42.789Z,95.90
2022-12-23T06:49:13.438Z,96.10
2022-12-23T06:51:40.744Z,96.20
2022-12-23T06:54:07.500Z,96.30
2022-12-23T06:56:34.466Z,96.40
2022-12-23T06:59:01.222Z,96.50
2022-12-23T07:01:28.217Z,96.40
2022-12-23T07:03:55.153Z,96.50
2022-12-23T07:06:21.967Z,96.80
2022-12-23T07:08:48.782Z,96.80
2022-12-23T07:11:15.619Z,97.00
2022-12-23T07:13:43.232Z,96.90
2022-12-23T07:16:10.448Z,97.00
2022-12-23T07:18:37.382Z,96.90
2022-12-23T07:21:04.541Z,97.00
2022-12-23T07:23:31.371Z,97.00
2022-12-23T07:25:58.178Z,97.30
2022-12-23T07:28:24.953Z,97.40
2022-12-23T07:30:51.743Z,97.50
2022-12-23T07:33:18.519Z,97.40
2022-12-23T07:35:45.340Z,97.50
2022-12-23T07:38:12.134Z,97.20
2022-12-23T07:40:38.953Z,97.40
2022-12-23T07:43:05.773Z,97.30
2022-12-23T07:45:32.671Z,97.30
2022-12-23T07:48:01.431Z,97.50
2022-12-23T07:50:28.371Z,97.40
2022-12-23T07:52:55.388Z,97.50
2022-12-23T07:55:22.306Z,97.50
2022-12-23T07:57:52.142Z,97.40
2022-12-23T08:00:19.255Z,97.30
2022-12-23T08:02:46.313Z,97.50
2022-12-23T08:05:13.387Z,97.60
2022-12-23T08:07:40.209Z,97.70
2022-12-23T08:10:07.646Z,97.60
2022-12-23T08:12:34.487Z,97.70
2022-12-23T08:15:01.383Z,97.80
2022-12-23T08:17:28.602Z,97.60
2022-12-23T08:19:55.622Z,97.70
2022-12-23T08:22:22.582Z,97.70
2022-12-23T08:24:49.523Z,97.60
2022-12-23T08:27:16.482Z,97.80
2022-12-23T08:29:43.308Z,97.90
2022-12-23T08:32:10.129Z,97.90
2022-12-23T08:34:36.934Z,97.90
2022-12-23T08:37:03.698Z,98.20
2022-12-23T08:39:30.532Z,98.20
2022-12-23T08:41:57.328Z,98.10
2022-12-23T08:44:27.388Z,98.20
2022-12-23T08:46:54.706Z,98.30
2022-12-23T08:49:21.553Z,98.40
2022-12-23T08:51:48.474Z,98.20
2022-12-23T08:54:15.953Z,98.40
2022-12-23T08:56:42.948Z,98.40
2022-12-23T08:59:19.139Z,98.40
2022-12-23T09:01:46.328Z,98.60
2022-12-23T09:04:13.204Z,98.70
2022-12-23T09:06:43.319Z,98.80
2022-12-23T09:09:10.867Z,98.90
2022-12-23T09:11:37.929Z,99.00
2022-12-23T09:14:04.866Z,99.00
2022-12-23T09:16:32.032Z,98.90
2022-12-23T09:18:59.008Z,98.70
2022-12-23T09:21:25.852Z,98.80
2022-12-23T09:23:52.671Z,98.90
2022-12-23T09:26:20.551Z,98.90
2022-12-23T09:28:47.394Z,98.80
2022-12-23T09:31:14.427Z,98.90
2022-12-23T09:33:41.345Z,98.90
2022-12-23T09:36:08.199Z,98.80
2022-12-23T09:38:35.047Z,98.80
2022-12-23T09:41:02.614Z,98.80
2022-12-23T09:43:35.587Z,98.70
2022-12-23T09:46:11.815Z,98.80
2022-12-23T09:48:39.496Z,98.80
2022-12-23T09:51:06.293Z,98.80
2022-12-23T09:53:52.067Z,98.80
2022-12-23T09:56:31.403Z,98.80
2022-12-23T09:59:07.829Z,98.70
2022-12-23T10:01:44.766Z,98.60
2022-12-23T10:04:30.939Z,98.70
2022-12-23T10:07:03.576Z,98.80
2022-12-23T10:09:34.607Z,99.00
2022-12-23T10:12:01.538Z,98.90
2022-12-23T10:14:29.524Z,98.90
2022-12-23T10:16:57.481Z,98.90
2022-12-23T10:19:41.954Z,99.00
2022-12-23T10:22:08.779Z,99.00
2022-12-23T10:24:39.412Z,99.00
2022-12-23T10:27:11.076Z,99.00
2022-12-23T10:29:37.888Z,99.00
2022-12-23T10:32:19.815Z,99.10
2022-12-23T10:34:52.497Z,99.10
2022-12-23T10:37:22.753Z,98.60
2022-12-23T10:39:55.451Z,98.60
2022-12-23T10:42:22.262Z,98.50
2022-12-23T10:45:12.243Z,98.50
2022-12-23T10:47:45.249Z,98.50
2022-12-23T10:50:22.420Z,98.40
2022-12-23T10:52:49.255Z,98.30
2022-12-23T10:55:19.097Z,98.20
2022-12-23T10:57:46.102Z,98.10
2022-12-23T11:00:17.068Z,98.20
2022-12-23T11:02:47.820Z,98.20
2022-12-23T11:05:15.911Z,98.30
2022-12-23T11:07:44.669Z,98.10
2022-12-23T11:10:16.297Z,98.00
2022-12-23T11:12:44.293Z,98.20
2022-12-23T11:15:46.831Z,97.90
2022-12-23T11:18:13.617Z,98.00
2022-12-23T11:20:41.094Z,98.00
2022-12-23T11:23:24.362Z,98.20
2022-12-23T11:25:52.251Z,98.00
2022-12-23T11:28:21.835Z,98.00
2022-12-23T11:30:56.881Z,98.00
2022-12-23T11:33:26.438Z,98.00
2022-12-23T11:36:02.731Z,98.10
2022-12-23T11:38:29.578Z,98.00
2022-12-23T11:40:56.357Z,98.30
2022-12-23T11:43:23.185Z,98.10
2022-12-23T11:45:50.034Z,98.10
2022-12-23T11:48:26.779Z,98.30
2022-12-23T11:51:00.364Z,98.40
2022-12-23T11:53:27.849Z,98.40
2022-12-23T11:56:15.003Z,98.60
2022-12-23T11:58:48.626Z,98.70
2022-12-23T12:01:18.912Z,98.70
2022-12-23T12:03:50.386Z,98.70
2022-12-23T12:06:17.305Z,98.70
2022-12-23T12:08:44.099Z,98.80
2022-12-23T12:11:13.163Z,98.80
2022-12-23T12:13:40.405Z,98.80
2022-12-23T12:16:27.085Z,98.80
2022-12-23T12:18:55.873Z,99.00
2022-12-23T12:21:24.072Z,99.20
2022-12-23T12:24:14.666Z,99.30
2022-12-23T12:26:41.434Z,99.30
2022-12-23T12:29:16.686Z,99.10
2022-12-23T12:31:50.900Z,99.00
2022-12-23T12:34:23.854Z,98.60
2022-12-23T12:36:52.661Z,98.40
2022-12-23T12:39:30.677Z,98.30
2022-12-23T12:42:05.245Z,98.30
2022-12-23T12:44:51.673Z,98.30
2022-12-23T12:47:52.035Z,98.00
2022-12-23T12:50:16.896Z,97.90
2022-12-23T12:52:43.780Z,97.60
2022-12-23T12:55:29.535Z,97.40
2022-12-23T12:57:56.401Z,96.90
2022-12-23T13:00:23.428Z,96.60
2022-12-23T13:03:05.716Z,96.40
2022-12-23T13:05:35.656Z,96.00
2022-12-23T13:08:19.130Z,96.10
2022-12-23T13:10:45.993Z,95.60
2022-12-23T13:13:24.709Z,95.60
2022-12-23T13:15:54.846Z,94.70
2022-12-23T13:18:21.658Z,94.40
2022-12-23T13:20:50.261Z,94.70
2022-12-23T13:23:42.281Z,94.90
2022-12-23T13:26:08.141Z,94.60
2022-12-23T13:28:37.954Z,94.90
2022-12-23T13:31:08.419Z,94.30
2022-12-23T13:33:47.590Z,94.10
2022-12-23T13:36:33.716Z,94.10
2022-12-23T13:39:04.162Z,94.00
2022-12-23T13:41:39.633Z,94.00
2022-12-23T13:44:08.459Z,94.00
2022-12-23T13:46:58.639Z,94.00
2022-12-23T13:49:25.468Z,94.00
2022-12-23T14:02:52.049Z,94.20
2022-12-23T14:05:31.332Z,94.30
2022-12-23T14:07:59.142Z,94.40
2022-12-23T14:10:25.985Z,94.00
2022-12-23T14:12:53.426Z,94.00
2022-12-23T14:15:35.308Z,94.00
2022-12-23T14:18:07.557Z,94.00
2022-12-23T14:20:47.407Z,94.00
2022-12-23T14:23:15.065Z,93.90
2022-12-23T14:26:00.593Z,94.00
2022-12-23T14:28:39.613Z,93.70
2022-12-23T14:31:06.515Z,94.00
2022-12-23T14:33:34.088Z,93.80
2022-12-23T14:36:14.383Z,94.00
2022-12-23T14:38:41.263Z,94.60
2022-12-23T14:41:38.273Z,94.80
2022-12-23T14:44:17.638Z,95.10
2022-12-23T14:46:44.510Z,95.60
2022-12-23T14:49:38.327Z,95.60
2022-12-23T14:52:19.921Z,96.10
2022-12-23T14:55:20.694Z,95.80
2022-12-23T14:57:33.501Z,95.50
2022-12-23T15:00:01.633Z,95.80
2022-12-23T15:02:33.540Z,96.10
2022-12-23T15:05:00.368Z,96.10
2022-12-23T15:07:36.312Z,96.10
2022-12-23T15:10:09.369Z,96.10
2022-12-23T15:12:37.412Z,96.10
2022-12-23T15:15:05.308Z,96.10
2022-12-23T15:17:33.447Z,96.40
2022-12-23T15:20:13.216Z,96.90
2022-12-23T15:22:40.997Z,97.20
2022-12-23T15:25:20.502Z,97.50
2022-12-23T15:27:47.446Z,97.50
2022-12-23T15:30:14.404Z,97.10
2022-12-23T15:32:41.657Z,97.00
2022-12-23T15:35:08.705Z,96.60
2022-12-23T15:37:35.523Z,96.20
2022-12-23T15:40:12.687Z,96.10
2022-12-23T15:42:40.455Z,96.30
2022-12-23T15:45:26.027Z,96.40
2022-12-23T15:47:52.922Z,96.50
2022-12-23T15:50:19.873Z,96.50
2022-12-23T15:52:48.657Z,96.10
2022-12-23T15:55:20.355Z,95.80
2022-12-23T15:57:50.440Z,95.90
2022-12-23T16:00:21.809Z,95.30
2022-12-23T16:03:00.396Z,95.40
2022-12-23T16:05:32.329Z,95.20
2022-12-23T16:08:16.235Z,95.40
2022-12-23T16:11:03.563Z,95.30
2022-12-23T16:13:30.725Z,95.50
2022-12-23T16:16:16.128Z,95.00
2022-12-23T16:18:47.207Z,95.10
2022-12-23T16:21:14.413Z,94.90
2022-12-23T16:23:42.188Z,94.70
2022-12-23T16:26:10.048Z,94.70
2022-12-23T16:28:40.569Z,94.80
2022-12-23T16:31:08.831Z,94.60
2022-12-23T16:33:38.927Z,94.80
2022-12-23T16:36:24.746Z,94.40
2022-12-23T16:39:00.001Z,94.60
2022-12-23T16:41:26.899Z,94.60
2022-12-23T16:43:53.720Z,94.40
2022-12-23T16:46:21.352Z,94.30
2022-12-23T16:48:49.057Z,94.50
2022-12-23T16:51:20.299Z,94.20
2022-12-23T16:53:47.775Z,93.90
2022-12-23T16:56:14.993Z,93.70
2022-12-23T16:58:42.056Z,93.60
2022-12-23T17:01:15.229Z,93.40
2022-12-23T17:03:42.176Z,93.70
2022-12-23T17:06:12.291Z,93.60
2022-12-23T17:08:39.173Z,93.60
2022-12-23T17:11:06.150Z,93.60
2022-12-23T17:13:32.948Z,93.70
2022-12-23T17:15:59.806Z,93.20
2022-12-23T17:18:26.729Z,93.20
2022-12-23T17:20:53.600Z,93.60
2022-12-23T17:23:27.050Z,93.10
2022-12-23T17:25:53.909Z,93.10
2022-12-23T17:28:20.931Z,92.80
2022-12-23T17:30:48.304Z,92.80
2022-12-23T17:33:16.536Z,92.50
2022-12-23T17:35:43.507Z,92.50
2022-12-23T17:38:13.178Z,92.40
2022-12-23T17:40:40.099Z,92.50
2022-12-23T17:43:08.393Z,92.70
2022-12-23T17:45:35.235Z,92.80
2022-12-23T17:48:02.069Z,92.30
2022-12-23T17:50:33.262Z,92.00
2022-12-23T17:53:00.058Z,92.10
2022-12-23T17:55:27.175Z,91.70
2022-12-23T17:57:53.983Z,91.60
2022-12-23T18:00:29.801Z,91.70
2022-12-23T18:03:00.635Z,91.60
2022-12-23T18:05:28.483Z,92.20
2022-12-23T18:07:55.686Z,92.00
2022-12-23T18:10:23.430Z,91.80
2022-12-23T18:12:51.942Z,92.30
2022-12-23T18:15:22.879Z,92.10
2022-12-23T18:17:49.878Z,92.20
2022-12-23T18:20:18.054Z,92.40
2022-12-23T18:22:47.763Z,92.40
2022-12-23T18:25:21.853Z,92.40
2022-12-23T18:27:48.815Z,92.00
2022-12-23T18:30:15.963Z,92.10
2022-12-23T18:32:42.860Z,91.70
2022-12-23T18:35:28.833Z,92.10
2022-12-23T18:37:55.970Z,91.80
2022-12-23T18:40:25.669Z,92.00
2022-12-23T18:42:54.813Z,92.20
2022-12-23T18:45:34.329Z,92.40
2022-12-23T18:48:01.483Z,92.40
2022-12-23T18:50:28.326Z,92.60
2022-12-23T18:52:55.179Z,92.40
2022-12-23T18:55:22.063Z,92.50
2022-12-23T18:57:49.291Z,92.70
2022-12-23T19:00:20.276Z,92.80
2022-12-23T19:02:47.659Z,92.60
2022-12-23T19:05:18.627Z,92.60
2022-12-23T19:07:45.643Z,92.80
2022-12-23T19:10:16.486Z,92.70
2022-12-23T19:12:43.297Z,92.70
2022-12-23T19:15:10.471Z,92.70
2022-12-23T19:17:37.270Z,92.90
2022-12-23T19:20:04.630Z,93.10
2022-12-23T19:22:31.483Z,92.80
2022-12-23T19:25:06.058Z,92.70
2022-12-23T19:27:33.683Z,92.70
2022-12-23T19:30:00.617Z,93.00
2022-12-23T19:32:27.662Z,93.10
2022-12-23T19:34:54.448Z,93.60
2022-12-23T19:37:21.311Z,93.80
2022-12-23T19:39:49.512Z,93.70
2022-12-23T19:42:16.490Z,93.70
2022-12-23T19:44:43.268Z,93.40
2022-12-23T19:47:10.092Z,93.70
2022-12-23T19:49:37.004Z,93.50
2022-12-23T19:52:04.047Z,93.40
2022-12-23T19:54:30.877Z,93.70
2022-12-23T19:56:58.016Z,93.70
2022-12-23T19:59:24.860Z,93.70
2022-12-23T20:01:51.792Z,94.00
2022-12-23T20:04:19.736Z,93.70
2022-12-23T20:06:46.491Z,93.70
2022-12-23T20:09:13.399Z,93.60
2022-12-23T20:11:43.988Z,93.60
2022-12-23T20:14:10.938Z,93.70
2022-12-23T20:16:38.103Z,93.50
2022-12-23T20:19:05.275Z,93.70
2022-12-23T20:21:32.223Z,93.60
2022-12-23T20:23:59.113Z,93.70
2022-12-23T20:26:27.260Z,94.00
2022-12-23T20:28:54.100Z,94.00
2022-12-23T20:31:22.215Z,94.00
2022-12-23T20:33:49.394Z,94.20
2022-12-23T20:36:16.853Z,94.30
2022-12-23T20:38:44.163Z,94.50
2022-12-23T20:41:11.717Z,94.50
2022-12-23T20:43:38.609Z,94.50
2022-12-23T20:46:06.079Z,94.70
2022-12-23T20:48:34.480Z,94.60
2022-12-23T20:51:05.082Z,94.80
2022-12-23T20:53:31.920Z,95.00
2022-12-23T20:56:09.044Z,95.00
2022-12-23T20:58:54.977Z,94.90
2022-12-23T21:01:22.343Z,95.30
2022-12-23T21:03:49.128Z,95.80
2022-12-23T21:06:15.890Z,96.00
2022-12-23T21:08:43.403Z,96.20
2022-12-23T21:11:10.239Z,96.20
2022-12-23T21:13:38.238Z,96.30
2022-12-23T21:16:05.859Z,96.50
2022-12-23T21:18:32.918Z,96.60
2022-12-23T21:21:00.100Z,96.60
2022-12-23T21:23:26.935Z,96.70
2022-12-23T21:26:05.303Z,96.80
2022-12-23T21:28:32.177Z,97.00
2022-12-23T21:30:59.023Z,97.00
2022-12-23T21:33:25.867Z,96.90
2022-12-23T21:35:52.675Z,96.90
2022-12-23T21:38:19.531Z,96.90
2022-12-23T21:40:46.324Z,96.80
2022-12-23T21:43:13.317Z,96.90
2022-12-23T21:45:40.106Z,97.00
2022-12-23T21:48:06.920Z,96.90
2022-12-23T21:50:33.711Z,97.00
2022-12-23T21:53:00.545Z,97.10
2022-12-23T21:55:27.388Z,96.90
2022-12-23T21:57:54.189Z,96.90
2022-12-23T22:00:21.070Z,96.90
2022-12-23T22:02:47.893Z,96.90
2022-12-23T22:05:14.797Z,96.80
2022-12-23T22:07:41.615Z,96.80
2022-12-23T22:10:08.705Z,97.00
2022-12-23T22:12:35.474Z,97.00
2022-12-23T22:15:06.329Z,97.00
2022-12-23T22:17:36.356Z,97.40
2022-12-23T22:20:03.451Z,97.50
2022-12-23T22:22:30.304Z,97.60
2022-12-23T22:24:57.087Z,97.40
2022-12-23T22:27:23.960Z,97.60
2022-12-23T22:29:50.818Z,97.60
2022-12-23T22:32:17.656Z,97.70
2022-12-23T22:34:44.447Z,97.80
2022-12-23T22:37:11.285Z,97.90
2022-12-23T22:39:38.098Z,97.90
2022-12-23T22:42:04.999Z,97.90
2022-12-23T22:44:31.768Z,97.90
2022-12-23T22:46:58.599Z,97.90
2022-12-23T22:49:25.516Z,97.60
2022-12-23T22:51:52.832Z,97.70
2022-12-23T22:54:19.627Z,97.70
2022-12-23T22:56:46.482Z,97.70
2022-12-23T22:59:17.927Z,97.80
2022-12-23T23:01:44.823Z,97.90
2022-12-23T23:04:11.684Z,97.90
2022-12-23T23:06:38.651Z,97.80
2022-12-23T23:09:06.310Z,97.80
2022-12-23T23:11:33.165Z,97.80
2022-12-23T23:14:00.223Z,97.70
2022-12-23T23:16:27.076Z,97.80
2022-12-23T23:18:53.944Z,97.80
2022-12-23T23:21:20.792Z,97.80
2022-12-23T23:23:47.650Z,97.80
2022-12-23T23:26:14.600Z,97.80
2022-12-23T23:28:41.371Z,97.90
2022-12-23T23:33:55.074Z,97.80
2022-12-23T23:36:21.906Z,97.80
2022-12-23T23:38:48.762Z,97.80
2022-12-23T23:41:20.691Z,97.80
2022-12-23T23:43:49.964Z,97.80
2022-12-23T23:46:16.862Z,97.80
2022-12-23T23:48:43.837Z,97.90
2022-12-23T23:51:10.697Z,97.90
2022-12-23T23:53:37.520Z,97.90
2022-12-23T23:56:04.985Z,97.80
2022-12-23T23:58:32.012Z,97.80
